Time;durP1;ratioP1;P1;durP2;ratioP2;P2;SDS_P1;SDS_P2;PMS_P1;PMS_P2;Temp;Humidity;BMP_temperature;BMP_pressure;BME280_temperature;BME280_humidity;BME280_pressure;Samples;Min_cycle;Max_cycle;Signal;HPM_P1;HPM_P2
2021/09/05 00:02:07;;;;;;;11.00;6.92;;;;;;;10.48;75.04;97659.31;1806541;77;25728;-85
2021/09/05 00:04:33;;;;;;;12.05;6.70;;;;;;;10.49;74.98;97660.15;1804095;77;25753;-84
2021/09/05 00:07:00;;;;;;;10.70;6.45;;;;;;;10.44;74.90;97660.23;1808674;77;26279;-85
2021/09/05 00:09:26;;;;;;;11.15;6.92;;;;;;;10.41;74.92;97660.63;1826383;77;25692;-85
2021/09/05 00:11:53;;;;;;;11.45;6.85;;;;;;;10.34;74.81;97661.66;1831381;77;28153;-81
2021/09/05 00:14:20;;;;;;;11.68;6.50;;;;;;;10.29;74.91;97659.56;1840915;77;25890;-85
2021/09/05 00:16:46;;;;;;;11.15;6.15;;;;;;;10.24;74.92;97663.41;1840988;77;25642;-86
2021/09/05 00:19:13;;;;;;;9.03;5.60;;;;;;;10.23;74.91;97662.26;1840948;77;26530;-84
2021/09/05 00:21:40;;;;;;;8.65;5.00;;;;;;;10.21;74.87;97669.20;1843017;77;25767;-85
2021/09/05 00:24:06;;;;;;;9.25;5.22;;;;;;;10.12;74.74;97669.04;1840528;77;27483;-85
2021/09/05 00:26:33;;;;;;;8.15;5.55;;;;;;;10.03;74.75;97669.71;1814920;77;26176;-85
2021/09/05 00:29:00;;;;;;;8.93;4.78;;;;;;;10.00;74.90;97665.26;1844239;77;25647;-85
2021/09/05 00:31:26;;;;;;;8.38;5.30;;;;;;;9.99;74.89;97666.29;1806827;77;25856;-84
2021/09/05 00:33:54;;;;;;;8.35;4.50;;;;;;;9.97;74.85;97662.95;1797193;77;25682;-85
2021/09/05 00:36:20;;;;;;;8.45;5.30;;;;;;;9.96;74.90;97669.37;1830287;77;28288;-85
2021/09/05 00:38:47;;;;;;;8.58;4.97;;;;;;;9.88;74.85;97671.74;1821660;77;25746;-86
2021/09/05 00:41:14;;;;;;;9.28;5.80;;;;;;;9.89;74.96;97671.23;1811062;77;25720;-86
2021/09/05 00:44:06;;;;;;;11.15;6.55;;;;;;;9.89;74.93;97672.06;1839261;76;25896;-85
2021/09/05 00:46:34;;;;;;;10.90;5.97;;;;;;;9.88;75.01;97674.95;1824182;77;25221;-85
2021/09/05 00:49:01;;;;;;;11.28;6.10;;;;;;;9.84;74.92;97670.98;1844296;77;27408;-86
2021/09/05 00:51:38;;;;;;;10.30;6.20;;;;;;;9.79;74.92;97676.96;1820760;77;25755;-86
2021/09/05 00:54:07;;;;;;;11.97;6.53;;;;;;;9.76;75.00;97677.38;1844245;77;25703;-86
2021/09/05 00:56:36;;;;;;;9.38;5.65;;;;;;;9.66;74.98;97672.33;1844253;77;25727;-81
2021/09/05 00:59:11;;;;;;;12.88;6.33;;;;;;;9.61;75.24;97679.37;1844164;77;25821;-85
2021/09/05 01:01:37;;;;;;;9.03;5.65;;;;;;;9.62;75.41;97679.69;1844044;77;28012;-86
2021/09/05 01:04:05;;;;;;;8.73;6.03;;;;;;;9.63;75.42;97678.14;1840449;77;25987;-85
2021/09/05 01:06:34;;;;;;;7.60;5.50;;;;;;;9.65;75.39;97685.52;1827820;77;25904;-85
2021/09/05 01:09:02;;;;;;;10.98;6.08;;;;;;;9.62;75.31;97679.17;1832418;77;25903;-85
2021/09/05 01:11:34;;;;;;;9.43;6.17;;;;;;;9.57;75.30;97678.92;1817480;77;26472;-86
2021/09/05 01:14:03;;;;;;;12.27;5.37;;;;;;;9.54;75.45;97679.31;1844436;77;27360;-84
2021/09/05 01:16:35;;;;;;;14.18;6.75;;;;;;;9.55;75.49;97674.75;1825194;77;25785;-85
2021/09/05 01:19:11;;;;;;;10.18;5.37;;;;;;;9.54;75.53;97679.31;1831333;77;25769;-85
2021/09/05 01:21:39;;;;;;;13.43;5.85;;;;;;;9.55;75.58;97676.94;1823989;77;25744;-85
2021/09/05 01:24:08;;;;;;;10.15;5.53;;;;;;;9.53;75.51;97683.06;1793956;77;25849;-81
2021/09/05 01:26:40;;;;;;;11.10;5.80;;;;;;;9.51;75.53;97681.59;1818948;77;27337;-84
2021/09/05 01:29:07;;;;;;;12.20;6.40;;;;;;;9.46;75.51;97688.91;1840753;77;25498;-85
2021/09/05 01:31:45;;;;;;;12.80;6.50;;;;;;;9.43;75.58;97683.91;1829564;77;26372;-86
2021/09/05 01:34:15;;;;;;;8.63;5.80;;;;;;;9.40;75.68;97688.37;1810221;77;25708;-84
2021/09/05 01:36:42;;;;;;;9.33;5.87;;;;;;;9.38;75.77;97693.95;1840241;77;25797;-83
2021/09/05 01:39:15;;;;;;;9.08;5.58;;;;;;;9.39;75.79;97690.73;1839208;77;28209;-84
2021/09/05 01:41:40;;;;;;;9.58;5.30;;;;;;;9.36;75.63;97687.09;1826309;77;25819;-85
2021/09/05 01:44:18;;;;;;;9.63;5.80;;;;;;;9.33;75.64;97686.95;1836672;77;25811;-84
2021/09/05 01:46:44;;;;;;;8.50;5.00;;;;;;;9.33;75.63;97691.00;1807537;77;25774;-86
2021/09/05 01:49:11;;;;;;;13.05;4.95;;;;;;;9.30;75.52;97689.20;1816210;77;25616;-85
2021/09/05 01:51:38;;;;;;;12.15;5.17;;;;;;;9.29;75.46;97690.26;1830740;77;27499;-83
2021/09/05 01:54:04;;;;;;;9.08;5.33;;;;;;;9.27;75.38;97693.14;1840759;77;25751;-84
2021/09/05 01:56:34;;;;;;;7.90;5.05;;;;;;;9.25;75.30;97691.16;1840869;77;25775;-85
2021/09/05 01:59:01;;;;;;;8.58;4.92;;;;;;;9.23;75.43;97686.98;1840938;77;25831;-83
2021/09/05 02:01:30;;;;;;;13.75;5.35;;;;;;;9.20;75.52;97690.90;1840864;77;25683;-85
2021/09/05 02:03:57;;;;;;;7.62;4.95;;;;;;;9.13;75.41;97683.80;1807541;77;27317;-84
2021/09/05 02:06:26;;;;;;;10.38;5.03;;;;;;;9.02;75.46;97691.91;1840807;77;25759;-85
2021/09/05 02:08:53;;;;;;;7.12;4.97;;;;;;;8.99;75.67;97699.85;1840754;77;25659;-82
2021/09/05 02:11:20;;;;;;;8.98;4.80;;;;;;;8.97;75.74;97695.68;1840856;77;25796;-83
2021/09/05 02:13:47;;;;;;;8.93;5.12;;;;;;;8.96;75.76;97698.88;1840863;77;25458;-85
2021/09/05 02:16:13;;;;;;;7.58;5.00;;;;;;;8.98;75.79;97702.73;1840924;77;27350;-84
2021/09/05 02:18:40;;;;;;;6.17;4.50;;;;;;;8.96;75.64;97700.23;1840706;77;26388;-85
2021/09/05 02:21:07;;;;;;;8.00;4.62;;;;;;;8.92;75.53;97707.05;1840621;76;25225;-85
2021/09/05 02:23:33;;;;;;;8.68;5.00;;;;;;;8.86;75.46;97705.12;1840866;77;25730;-85
2021/09/05 02:26:00;;;;;;;4.95;4.12;;;;;;;8.83;75.47;97705.50;1840821;77;25850;-82
2021/09/05 02:28:26;;;;;;;8.20;4.75;;;;;;;8.80;75.48;97708.59;1840790;77;27872;-85
2021/09/05 02:30:53;;;;;;;11.03;5.90;;;;;;;8.78;75.42;97711.98;1840664;77;25694;-87
2021/09/05 02:33:19;;;;;;;12.65;5.87;;;;;;;8.73;75.41;97705.50;1820089;77;25660;-86
2021/09/05 02:35:46;;;;;;;7.87;4.80;;;;;;;8.69;75.40;97713.15;1829006;77;25722;-86
2021/09/05 02:38:13;;;;;;;11.25;5.40;;;;;;;8.64;75.38;97711.53;1840938;77;25619;-86
2021/09/05 02:40:39;;;;;;;7.58;4.37;;;;;;;8.61;75.46;97706.02;1840558;77;28065;-83
2021/09/05 02:43:06;;;;;;;10.45;5.33;;;;;;;8.58;75.40;97712.28;1840633;77;25716;-85
2021/09/05 02:45:32;;;;;;;9.33;4.75;;;;;;;8.54;75.41;97711.02;1840709;77;25719;-84
2021/09/05 02:48:00;;;;;;;7.30;4.60;;;;;;;8.51;75.41;97714.08;1799631;77;25871;-87
2021/09/05 02:50:26;;;;;;;7.92;4.40;;;;;;;8.46;75.36;97717.84;1793848;77;25768;-84
2021/09/05 02:52:53;;;;;;;7.67;4.47;;;;;;;8.41;75.41;97716.25;1831194;77;28269;-81
2021/09/05 02:55:20;;;;;;;10.88;5.65;;;;;;;8.37;75.44;97718.99;1829294;77;25680;-84
2021/09/05 02:57:46;;;;;;;7.80;5.03;;;;;;;8.33;75.46;97724.45;1817577;77;25726;-88
2021/09/05 03:00:13;;;;;;;7.97;5.22;;;;;;;8.25;75.49;97719.45;1840459;77;25730;-88
2021/09/05 03:02:40;;;;;;;9.95;5.53;;;;;;;8.25;75.57;97718.62;1840852;77;26365;-86
2021/09/05 03:05:07;;;;;;;8.33;5.58;;;;;;;8.24;75.59;97723.16;1840819;77;27992;-86
2021/09/05 03:07:33;;;;;;;8.08;4.90;;;;;;;8.23;75.54;97722.84;1840956;77;25775;-85
2021/09/05 03:10:00;;;;;;;10.08;5.45;;;;;;;8.19;75.54;97726.95;1840925;77;25743;-87
2021/09/05 03:12:27;;;;;;;7.92;4.33;;;;;;;8.15;75.46;97724.30;1829363;77;25762;-82
2021/09/05 03:14:54;;;;;;;8.58;4.72;;;;;;;8.08;75.50;97727.44;1793963;77;25791;-88
2021/09/05 03:17:20;;;;;;;7.10;4.25;;;;;;;8.06;75.64;97726.78;1834656;77;27156;-88
2021/09/05 03:19:47;;;;;;;5.97;4.42;;;;;;;8.07;75.64;97724.92;1818728;77;25703;-86
2021/09/05 03:22:14;;;;;;;5.97;3.92;;;;;;;8.05;75.66;97729.14;1797235;77;25765;-85
2021/09/05 03:24:40;;;;;;;9.48;4.42;;;;;;;8.02;75.67;97732.20;1840858;77;26452;-86
2021/09/05 03:27:07;;;;;;;6.35;4.12;;;;;;;7.99;75.60;97729.87;1841079;77;25763;-85
2021/09/05 03:29:34;;;;;;;5.97;3.90;;;;;;;7.96;75.57;97734.30;1827139;77;27346;-84
2021/09/05 03:32:00;;;;;;;8.83;4.50;;;;;;;7.93;75.57;97740.88;1822112;77;25784;-85
2021/09/05 03:34:27;;;;;;;8.65;4.28;;;;;;;7.78;75.60;97717.20;1831435;77;25778;-84
2021/09/05 03:36:53;;;;;;;9.98;4.45;;;;;;;7.86;75.60;97739.11;1818040;77;26329;-86
2021/09/05 03:39:20;;;;;;;7.58;3.62;;;;;;;7.84;75.61;97738.48;1835140;77;25675;-87
2021/09/05 03:41:47;;;;;;;8.00;4.30;;;;;;;7.77;75.51;97737.54;1813650;77;27610;-86
2021/09/05 03:44:13;;;;;;;5.97;3.35;;;;;;;7.74;75.60;97742.77;1839569;77;25850;-86
2021/09/05 03:46:40;;;;;;;6.03;3.98;;;;;;;7.73;75.71;97742.98;1793733;77;25716;-87
2021/09/05 03:49:06;;;;;;;6.50;3.92;;;;;;;7.72;75.66;97746.69;1823808;77;26682;-84
2021/09/05 03:51:33;;;;;;;6.53;4.05;;;;;;;7.71;75.65;97746.36;1832003;77;25691;-86
2021/09/05 03:53:59;;;;;;;8.43;4.10;;;;;;;7.69;75.68;97747.05;1840935;77;27349;-86
2021/09/05 03:56:26;;;;;;;7.78;3.95;;;;;;;7.68;75.69;97752.09;1809909;77;25818;-87
2021/09/05 03:58:53;;;;;;;8.03;3.92;;;;;;;7.64;75.71;97744.06;1839502;77;25893;-87
2021/09/05 04:01:19;;;;;;;8.68;4.03;;;;;;;7.61;75.77;97751.17;1840891;77;25830;-87
2021/09/05 04:03:46;;;;;;;9.18;3.75;;;;;;;7.59;75.76;97749.50;1840873;77;25616;-86
2021/09/05 04:06:13;;;;;;;6.80;3.90;;;;;;;7.59;75.83;97752.19;1840927;77;27698;-86
2021/09/05 04:08:45;;;;;;;8.08;4.22;;;;;;;7.58;75.80;97756.40;1836532;77;25715;-86
2021/09/05 04:11:11;;;;;;;7.10;3.95;;;;;;;7.57;75.81;97764.13;1793845;77;25710;-86
2021/09/05 04:13:38;;;;;;;7.22;4.10;;;;;;;7.55;75.81;97761.63;1828580;77;25716;-87
2021/09/05 04:16:05;;;;;;;8.53;4.47;;;;;;;7.51;75.73;97763.00;1840879;77;25869;-87
2021/09/05 04:18:32;;;;;;;6.58;3.67;;;;;;;7.41;75.60;97770.49;1840840;77;27368;-87
2021/09/05 04:20:58;;;;;;;5.35;3.45;;;;;;;7.37;75.76;97769.69;1840815;77;25675;-88
2021/09/05 04:23:25;;;;;;;6.42;3.77;;;;;;;7.38;75.99;97772.70;1840697;77;25749;-88
2021/09/05 04:25:51;;;;;;;6.40;3.87;;;;;;;7.40;76.08;97778.22;1840805;77;26498;-87
2021/09/05 04:28:18;;;;;;;6.20;4.20;;;;;;;7.41;76.09;97779.89;1842997;77;25720;-82
2021/09/05 04:30:45;;;;;;;8.80;5.20;;;;;;;7.43;76.16;97777.86;1817798;77;28038;-87
2021/09/05 04:33:11;;;;;;;6.53;4.80;;;;;;;7.44;76.27;97782.22;1793854;77;25707;-86
2021/09/05 04:35:38;;;;;;;8.75;5.67;;;;;;;7.46;76.27;97782.87;1793695;77;25887;-84
2021/09/05 04:38:05;;;;;;;5.87;4.62;;;;;;;7.45;76.26;97783.89;1807537;77;26461;-87
2021/09/05 04:40:31;;;;;;;7.22;4.60;;;;;;;7.47;76.26;97793.95;1840786;77;25900;-87
2021/09/05 04:42:58;;;;;;;9.15;4.30;;;;;;;7.48;76.32;97784.05;1831058;77;27181;-89
2021/09/05 04:45:24;;;;;;;8.38;4.80;;;;;;;7.47;76.38;97792.61;1817742;77;25723;-87
2021/09/05 04:47:51;;;;;;;8.78;5.17;;;;;;;7.49;76.54;97799.95;1802134;77;25724;-86
2021/09/05 04:50:18;;;;;;;6.37;4.45;;;;;;;7.53;76.64;97798.58;1813579;77;25750;-87
2021/09/05 04:52:44;;;;;;;8.78;4.55;;;;;;;7.57;76.71;97799.89;1840839;77;25765;-86
2021/09/05 04:55:11;;;;;;;7.53;5.08;;;;;;;7.61;76.79;97803.56;1840707;77;27410;-86
2021/09/05 04:57:38;;;;;;;8.88;5.65;;;;;;;7.65;76.92;97803.00;1840642;77;25822;-86
2021/09/05 05:00:06;;;;;;;10.03;5.72;;;;;;;7.69;76.98;97808.84;1805279;77;25854;-83
2021/09/05 05:02:32;;;;;;;8.68;5.65;;;;;;;7.71;76.96;97808.16;1811161;77;25685;-87
2021/09/05 05:04:59;;;;;;;11.05;6.35;;;;;;;7.75;77.05;97806.75;1808735;77;25734;-87
2021/09/05 05:07:25;;;;;;;11.40;6.42;;;;;;;7.79;77.05;97814.78;1840056;77;27395;-87
2021/09/05 05:09:54;;;;;;;9.80;6.50;;;;;;;7.82;77.15;97813.08;1812981;77;26362;-87
2021/09/05 05:12:21;;;;;;;11.30;7.60;;;;;;;7.84;77.24;97813.73;1836551;77;25651;-86
2021/09/05 05:14:47;;;;;;;11.45;7.72;;;;;;;7.89;77.39;97812.15;1840967;77;25904;-84
2021/09/05 05:17:14;;;;;;;12.85;7.22;;;;;;;7.97;77.38;97810.41;1840896;77;25720;-88
2021/09/05 05:19:41;;;;;;;9.68;6.85;;;;;;;8.02;77.41;97816.88;1820890;77;27416;-87
2021/09/05 05:22:07;;;;;;;9.73;6.40;;;;;;;8.09;77.53;97821.03;1792119;77;25855;-87
2021/09/05 05:24:34;;;;;;;10.82;6.28;;;;;;;8.15;77.52;97821.61;1816280;78;25645;-87
2021/09/05 05:27:00;;;;;;;10.65;5.25;;;;;;;8.21;77.60;97827.06;1795732;78;25784;-86
2021/09/05 05:29:27;;;;;;;7.97;5.37;;;;;;;8.27;77.53;97820.95;1814782;78;25839;-85
2021/09/05 05:31:53;;;;;;;10.63;6.78;;;;;;;8.35;77.56;97820.55;1798561;78;27349;-88
2021/09/05 05:34:20;;;;;;;10.65;6.67;;;;;;;8.39;77.57;97824.55;1784060;78;26382;-86
2021/09/05 05:36:47;;;;;;;9.43;6.05;;;;;;;8.45;77.60;97830.55;1799057;78;25790;-87
2021/09/05 05:39:13;;;;;;;11.22;7.00;;;;;;;8.51;77.73;97824.39;1814075;78;25689;-81
2021/09/05 05:41:40;;;;;;;13.58;7.03;;;;;;;8.59;77.76;97832.34;1796242;78;25697;-86
2021/09/05 05:44:06;;;;;;;10.78;6.25;;;;;;;8.65;77.75;97835.64;1794209;78;28239;-84
2021/09/05 05:46:33;;;;;;;12.20;6.67;;;;;;;8.72;77.81;97835.20;1806903;78;25806;-87
2021/09/05 05:49:00;;;;;;;10.65;6.70;;;;;;;8.79;77.79;97834.78;1803380;78;25695;-87
2021/09/05 05:51:26;;;;;;;11.68;7.22;;;;;;;8.84;77.72;97839.58;1810068;78;26388;-81
2021/09/05 05:53:53;;;;;;;12.13;6.95;;;;;;;8.91;77.79;97835.95;1766644;80;25771;-86
2021/09/05 05:56:19;;;;;;;10.05;6.65;;;;;;;8.99;77.79;97841.73;1789483;78;27188;-86
2021/09/05 05:58:46;;;;;;;11.68;7.67;;;;;;;9.08;77.82;97836.53;1789159;80;25737;-87
2021/09/05 06:01:12;;;;;;;16.10;8.18;;;;;;;9.18;77.80;97844.29;1789484;78;26379;-87
2021/09/05 06:03:39;;;;;;;10.32;7.15;;;;;;;9.27;77.66;97845.34;1789472;78;26396;-86
2021/09/05 06:06:06;;;;;;;13.65;8.10;;;;;;;9.36;77.55;97844.18;1789487;78;25712;-86
2021/09/05 06:08:33;;;;;;;11.18;8.00;;;;;;;9.45;77.48;97847.56;1789386;80;27166;-86
2021/09/05 06:11:00;;;;;;;11.15;7.45;;;;;;;9.51;77.46;97852.71;1789313;79;25708;-86
2021/09/05 06:13:26;;;;;;;10.32;7.00;;;;;;;9.60;77.52;97857.77;1789428;78;25736;-85
2021/09/05 06:15:53;;;;;;;11.30;7.12;;;;;;;9.71;77.47;97855.89;1789317;80;26458;-86
2021/09/05 06:18:20;;;;;;;11.35;6.90;;;;;;;9.81;77.38;97854.20;1789567;79;25687;-86
2021/09/05 06:20:46;;;;;;;10.65;6.50;;;;;;;9.89;77.24;97860.81;1789392;80;27441;-86
2021/09/05 06:23:13;;;;;;;12.55;6.40;;;;;;;9.97;77.23;97859.82;1776897;80;25305;-85
2021/09/05 06:25:39;;;;;;;12.15;6.97;;;;;;;10.06;77.12;97862.67;1763741;80;25715;-86
2021/09/05 06:28:06;;;;;;;9.33;6.78;;;;;;;10.16;77.04;97868.55;1781966;79;26597;-85
2021/09/05 06:30:33;;;;;;;13.15;7.60;;;;;;;10.26;76.98;97859.65;1800989;79;25740;-86
2021/09/05 06:32:59;;;;;;;9.83;6.92;;;;;;;10.35;76.85;97865.71;1749304;80;28025;-84
2021/09/05 06:35:26;;;;;;;9.35;6.92;;;;;;;10.42;76.78;97863.36;1764122;78;25799;-85
2021/09/05 06:37:53;;;;;;;13.55;7.17;;;;;;;10.51;76.84;97871.28;1777703;78;25815;-85
2021/09/05 06:40:21;;;;;;;11.73;7.30;;;;;;;10.58;76.91;97863.55;1772552;77;25738;-85
2021/09/05 06:42:47;;;;;;;10.08;6.45;;;;;;;10.73;77.33;97864.25;1775261;77;25712;-86
2021/09/05 06:45:14;;;;;;;8.30;6.33;;;;;;;10.85;77.26;97860.45;1774620;79;27457;-86
2021/09/05 06:47:41;;;;;;;10.15;5.90;;;;;;;10.95;76.89;97871.70;1798491;78;25695;-83
2021/09/05 06:50:11;;;;;;;11.03;7.28;;;;;;;11.01;76.90;97870.88;1781001;78;25737;-84
2021/09/05 06:52:37;;;;;;;10.63;7.33;;;;;;;11.10;76.82;97872.39;1779505;79;26456;-85
2021/09/05 06:55:05;;;;;;;9.60;6.65;;;;;;;11.19;76.79;97872.52;1794931;79;25422;-84
2021/09/05 06:57:31;;;;;;;9.55;6.08;;;;;;;11.30;76.79;97877.00;1801371;79;27439;-84
2021/09/05 06:59:58;;;;;;;10.00;6.83;;;;;;;11.39;76.70;97877.95;1801298;79;25694;-84
2021/09/05 07:02:25;;;;;;;13.38;7.83;;;;;;;11.47;76.59;97881.00;1801540;79;25698;-84
2021/09/05 07:04:52;;;;;;;12.85;7.58;;;;;;;11.56;76.50;97887.88;1781618;79;25791;-83
2021/09/05 07:07:18;;;;;;;11.28;7.17;;;;;;;11.65;76.47;97885.27;1799448;78;25779;-84
2021/09/05 07:09:45;;;;;;;10.65;6.53;;;;;;;11.73;76.47;97890.47;1784352;79;27463;-84
2021/09/05 07:12:11;;;;;;;11.08;7.15;;;;;;;11.82;76.44;97897.92;1796424;78;25709;-84
2021/09/05 07:14:38;;;;;;;12.40;7.72;;;;;;;11.90;76.33;97899.05;1787220;79;25716;-85
2021/09/05 07:17:05;;;;;;;9.65;6.90;;;;;;;11.98;76.30;97895.30;1793729;79;26486;-82
2021/09/05 07:19:37;;;;;;;10.25;6.65;;;;;;;12.04;76.19;97898.02;1801181;79;25778;-85
2021/09/05 07:22:05;;;;;;;9.25;7.08;;;;;;;12.08;76.17;97906.02;1797096;79;27379;-85
2021/09/05 07:24:31;;;;;;;10.82;6.05;;;;;;;12.18;76.32;97909.16;1791177;79;25941;-83
2021/09/05 07:26:58;;;;;;;7.30;5.15;;;;;;;12.31;76.23;97911.02;1801360;78;25813;-84
2021/09/05 07:29:24;;;;;;;11.55;5.65;;;;;;;12.33;75.62;97912.97;1800950;78;25903;-82
2021/09/05 07:31:51;;;;;;;8.55;5.45;;;;;;;12.43;75.72;97914.75;1792209;78;25860;-84
2021/09/05 07:34:18;;;;;;;7.85;5.47;;;;;;;12.56;75.52;97918.77;1787520;79;27398;-85
2021/09/05 07:36:44;;;;;;;6.83;5.10;;;;;;;12.68;75.29;97920.30;1796901;79;25812;-84
2021/09/05 07:39:11;;;;;;;10.38;5.50;;;;;;;12.75;75.18;97916.23;1776922;78;25928;-87
2021/09/05 07:41:38;;;;;;;7.90;4.72;;;;;;;12.86;75.35;97921.00;1785405;78;25915;-84
2021/09/05 07:44:05;;;;;;;15.30;5.33;;;;;;;12.99;75.31;97923.66;1769305;79;25721;-84
2021/09/05 07:46:32;;;;;;;6.25;4.17;;;;;;;13.14;75.21;97921.55;1822202;77;26856;-84
2021/09/05 07:48:58;;;;;;;7.03;4.70;;;;;;;13.32;75.07;97920.83;1824291;77;25715;-84
2021/09/05 07:51:25;;;;;;;7.05;4.45;;;;;;;13.47;74.66;97921.91;1833933;77;25203;-83
2021/09/05 07:53:53;;;;;;;7.55;4.20;;;;;;;13.59;74.45;97925.07;1843821;77;26653;-84
2021/09/05 07:56:21;;;;;;;7.40;4.35;;;;;;;13.73;73.97;97933.97;1843794;77;26334;-82
2021/09/05 07:58:48;;;;;;;8.45;4.45;;;;;;;13.89;73.67;97919.84;1843657;77;28208;-83
2021/09/05 08:01:16;;;;;;;6.33;3.67;;;;;;;14.27;73.49;97936.58;1843714;77;25673;-84
2021/09/05 08:03:42;;;;;;;8.00;4.12;;;;;;;14.59;72.95;97925.98;1820867;77;25651;-84
2021/09/05 08:06:10;;;;;;;4.42;3.15;;;;;;;14.80;72.40;97930.68;1822666;77;26415;-86
2021/09/05 08:08:36;;;;;;;5.17;2.17;;;;;;;14.98;71.99;97933.39;1831328;77;25678;-87
2021/09/05 08:11:04;;;;;;;2.12;1.60;;;;;;;15.14;70.78;97939.59;1823397;77;27493;-93
2021/09/05 08:13:32;;;;;;;4.40;2.02;;;;;;;15.34;70.06;97940.16;1821247;77;25814;-86
2021/09/05 08:16:03;;;;;;;3.85;1.70;;;;;;;15.55;68.67;97936.18;1810989;77;25810;-84
2021/09/05 08:18:35;;;;;;;2.90;1.65;;;;;;;15.97;68.65;97938.91;1832118;77;25677;-85
2021/09/05 08:21:03;;;;;;;2.62;1.57;;;;;;;16.41;68.23;97932.14;1835178;77;25797;-85
2021/09/05 08:23:30;;;;;;;1.90;1.37;;;;;;;16.73;67.70;97938.92;1800481;77;26882;-84
2021/09/05 08:25:57;;;;;;;3.35;1.62;;;;;;;16.88;66.24;97937.09;1812642;78;25751;-84
2021/09/05 08:28:25;;;;;;;3.15;2.20;;;;;;;16.95;65.52;97943.23;1799953;78;25812;-85
2021/09/05 08:30:52;;;;;;;2.55;1.60;;;;;;;17.08;64.75;97943.52;1784019;78;26269;-84
2021/09/05 08:33:19;;;;;;;2.27;1.67;;;;;;;17.18;64.27;97939.63;1784295;78;25638;-84
2021/09/05 08:35:46;;;;;;;3.65;1.55;;;;;;;17.15;62.95;97948.29;1808122;78;27187;-85
2021/09/05 08:38:14;;;;;;;3.27;1.40;;;;;;;17.16;61.85;97941.23;1804859;78;25703;-84
2021/09/05 08:40:47;;;;;;;4.47;1.50;;;;;;;17.38;62.22;97936.52;1784374;78;26297;-85
2021/09/05 08:43:16;;;;;;;2.77;1.72;;;;;;;17.74;61.92;97937.55;1784303;78;25761;-85
2021/09/05 08:45:45;;;;;;;2.52;1.57;;;;;;;18.08;60.43;97943.06;1804607;78;25658;-81
2021/09/05 08:48:15;;;;;;;5.37;1.80;;;;;;;18.31;60.42;97935.55;1808070;78;28211;-84
2021/09/05 08:50:43;;;;;;;4.85;1.80;;;;;;;18.45;59.75;97940.69;1784263;78;25738;-85
2021/09/05 08:53:10;;;;;;;3.55;1.98;;;;;;;18.58;60.24;97951.33;1784351;78;25807;-83
2021/09/05 08:55:37;;;;;;;2.50;1.60;;;;;;;18.66;59.78;97942.70;1806322;78;25790;-84
2021/09/05 08:58:03;;;;;;;2.22;1.42;;;;;;;18.82;59.21;97949.23;1804533;78;25756;-86
2021/09/05 09:00:31;;;;;;;2.90;1.80;;;;;;;18.99;59.38;97952.75;1809074;78;28426;-83
2021/09/05 09:02:59;;;;;;;1.90;1.70;;;;;;;19.18;58.91;97954.13;1784162;78;25748;-83
2021/09/05 09:05:39;;;;;;;2.70;1.70;;;;;;;19.36;58.39;97950.25;1811876;78;25685;-84
2021/09/05 09:08:12;;;;;;;1.87;1.50;;;;;;;19.55;58.32;97954.37;1798534;78;26439;-86
2021/09/05 09:10:58;;;;;;;1.98;1.57;;;;;;;19.74;57.64;97954.84;1813583;78;25701;-84
2021/09/05 09:13:37;;;;;;;2.42;1.62;;;;;;;19.91;57.05;97952.86;1795854;78;27343;-83
2021/09/05 09:16:07;;;;;;;3.10;1.60;;;;;;;20.15;56.44;97957.48;1794988;78;25711;-83
2021/09/05 09:18:37;;;;;;;2.40;1.57;;;;;;;20.33;55.01;97953.52;1796880;78;25704;-84
2021/09/05 09:21:11;;;;;;;2.33;1.37;;;;;;;20.43;54.79;97957.20;1819584;78;25914;-83
2021/09/05 09:23:39;;;;;;;1.40;1.30;;;;;;;20.65;54.68;97957.11;1818512;78;25781;-83
2021/09/05 09:26:13;;;;;;;2.12;1.37;;;;;;;20.73;53.97;97957.19;1845614;77;28208;-84
2021/09/05 09:28:45;;;;;;;3.02;1.32;;;;;;;20.84;53.84;97952.05;1846602;77;25663;-84
2021/09/05 09:31:22;;;;;;;1.80;1.40;;;;;;;21.03;53.50;97960.13;1800845;77;25810;-83
2021/09/05 09:33:52;;;;;;;2.08;1.20;;;;;;;21.08;53.09;97934.09;1830197;77;26483;-83
2021/09/05 09:36:21;;;;;;;1.92;1.20;;;;;;;21.33;51.42;97960.89;1846830;77;25674;-84
2021/09/05 09:39:05;;;;;;;1.47;1.15;;;;;;;21.33;51.42;97960.89;1846903;77;27353;-83
2021/09/05 09:41:37;;;;;;;1.27;1.15;;;;;;;21.47;51.59;97965.35;1846812;77;26030;-85
2021/09/05 09:44:07;;;;;;;1.57;1.30;;;;;;;21.60;51.28;97964.03;1846549;77;25759;-83
2021/09/05 09:46:37;;;;;;;2.17;1.20;;;;;;;21.74;50.55;97957.74;1846869;77;26563;-86
2021/09/05 09:49:11;;;;;;;1.60;1.02;;;;;;;21.89;50.76;97955.05;1846817;77;25749;-84
2021/09/05 09:51:40;;;;;;;2.17;1.20;;;;;;;21.99;49.91;97963.07;1842039;77;27427;-85
2021/09/05 09:54:07;;;;;;;1.25;1.07;;;;;;;22.01;49.23;97954.01;1799289;77;25731;-84
2021/09/05 09:56:34;;;;;;;1.30;1.20;;;;;;;21.93;48.86;97954.80;1833226;77;25735;-82
2021/09/05 09:59:04;;;;;;;1.95;1.20;;;;;;;21.89;48.36;97952.30;1846826;77;26619;-83
2021/09/05 10:01:33;;;;;;;3.60;1.00;;;;;;;21.91;48.71;97950.11;1846894;77;25691;-83
2021/09/05 10:04:02;;;;;;;1.20;1.05;;;;;;;22.02;48.41;97959.78;1850953;76;27430;-88
2021/09/05 10:06:32;;;;;;;3.17;1.37;;;;;;;22.13;47.65;97951.83;1844110;77;25830;-85
2021/09/05 10:09:07;;;;;;;1.37;1.12;;;;;;;22.19;48.13;97953.52;1846421;77;25738;-85
2021/09/05 10:11:36;;;;;;;1.05;0.93;;;;;;;22.25;47.56;97955.98;1833006;77;26307;-88
2021/09/05 10:14:03;;;;;;;0.93;0.78;;;;;;;22.33;47.65;97951.88;1837405;77;25818;-90
2021/09/05 10:16:30;;;;;;;1.52;0.95;;;;;;;22.33;47.29;97952.43;1802090;77;27275;-83
2021/09/05 10:19:07;;;;;;;1.90;1.20;;;;;;;22.33;47.37;97951.88;1805120;77;25750;-83
2021/09/05 10:21:36;;;;;;;2.50;1.00;;;;;;;22.38;47.11;97951.87;1846769;77;25699;-84
2021/09/05 10:24:04;;;;;;;2.67;1.10;;;;;;;22.40;47.15;97955.17;1825192;77;25775;-85
2021/09/05 10:26:30;;;;;;;1.72;1.12;;;;;;;22.36;46.21;97951.31;1808161;77;25846;-84
2021/09/05 10:29:01;;;;;;;1.70;1.40;;;;;;;22.33;45.56;97950.51;1835277;77;28275;-83
2021/09/05 10:31:34;;;;;;;2.80;1.10;;;;;;;22.35;46.01;97952.95;1818615;77;26026;-86
2021/09/05 10:34:01;;;;;;;1.62;1.15;;;;;;;22.40;45.63;97951.05;1846983;77;26399;-83
2021/09/05 10:36:30;;;;;;;1.10;1.00;;;;;;;22.44;45.41;97943.91;1847444;77;25688;-83
2021/09/05 10:39:08;;;;;;;3.77;1.50;;;;;;;22.53;45.60;97947.76;1846357;77;25633;-84
2021/09/05 10:41:50;;;;;;;1.37;1.12;;;;;;;22.59;45.25;97948.02;1825381;77;27422;-85
2021/09/05 10:44:18;;;;;;;;;;;;;;;22.56;44.66;97938.96;1816861;77;26446;-84
2021/09/05 10:46:48;;;;;;;1.80;1.15;;;;;;;22.53;44.70;97945.00;1847488;77;25826;-93
2021/09/05 10:49:16;;;;;;;1.20;1.10;;;;;;;22.54;44.59;97952.70;1824467;77;25758;-84
2021/09/05 10:51:51;;;;;;;1.20;1.07;;;;;;;22.49;43.97;97952.15;1824292;77;25698;-84
2021/09/05 10:54:27;;;;;;;1.37;1.20;;;;;;;22.45;44.67;97948.31;1847056;77;27415;-83
2021/09/05 10:56:59;;;;;;;1.35;1.22;;;;;;;22.49;44.40;97949.39;1840319;77;26067;-86
2021/09/05 10:59:30;;;;;;;1.50;1.40;;;;;;;22.52;44.76;97955.73;1821510;77;25779;-83
2021/09/05 11:02:00;;;;;;;1.97;1.13;;;;;;;22.58;44.25;97955.20;1837506;77;25840;-83
2021/09/05 11:04:43;;;;;;;1.95;1.35;;;;;;;22.57;43.83;97936.48;1814242;77;25646;-84
2021/09/05 11:07:12;;;;;;;2.25;1.27;;;;;;;22.54;44.12;97950.78;1818856;77;28201;-85
2021/09/05 11:09:44;;;;;;;1.50;1.30;;;;;;;22.53;43.61;97949.13;1821473;77;26283;-81
2021/09/05 11:12:23;;;;;;;1.65;1.20;;;;;;;22.51;43.60;97941.70;1808635;77;25706;-83
2021/09/05 11:14:54;;;;;;;2.67;1.32;;;;;;;22.42;43.32;97945.28;1826486;77;25780;-81
2021/09/05 11:17:26;;;;;;;3.33;1.40;;;;;;;22.36;43.27;97955.44;1837723;77;25698;-83
2021/09/05 11:20:12;;;;;;;1.87;1.20;;;;;;;22.34;43.50;97952.13;1807027;77;27306;-82
2021/09/05 11:22:43;;;;;;;4.90;1.22;;;;;;;22.33;42.89;97952.43;1842236;77;26405;-81
2021/09/05 11:25:28;;;;;;;2.98;1.40;;;;;;;22.27;42.85;97950.21;1843043;77;25659;-82
2021/09/05 11:28:05;;;;;;;1.87;1.20;;;;;;;22.24;42.82;97948.00;1832881;77;25859;-82
2021/09/05 11:30:38;;;;;;;1.85;1.22;;;;;;;22.14;43.04;97943.31;1831826;77;25759;-83
2021/09/05 11:33:10;;;;;;;2.58;1.27;;;;;;;22.14;43.04;97943.31;1827270;76;27409;-87
2021/09/05 11:35:41;;;;;;;3.00;1.15;;;;;;;22.04;42.15;97946.60;1832793;77;25664;-82
2021/09/05 11:38:09;;;;;;;2.58;1.37;;;;;;;21.90;42.29;97941.59;1818502;77;25809;-82
2021/09/05 11:40:50;;;;;;;1.85;1.30;;;;;;;21.93;43.02;97943.80;1829996;77;25677;-85
2021/09/05 11:43:35;;;;;;;3.12;1.67;;;;;;;21.88;42.25;97949.27;1830597;77;25771;-87